Light rain, thunderstorms likely
Mixed with cirrus with some thunderstorm clouds possible
Mixed with cirrus with some thunderstorm clouds possible
Rain, thunderstorms likely
Rain, thunderstorms likely
Rain, thunderstorms likely
Mixed with cirrus with some thunderstorm clouds possible
Mixed with cirrus with some thunderstorm clouds possible
Mixed with cirrus with some thunderstorm clouds possible
(°F)
82°
82°
80°
80°
78°
78°
77°
77°
77°
77°
76°
76°
75°
75°
75°
75°
75°
75°
(°F)
91°
89°
87°
86°
86°
85°
85°
84°
84°
W
WSW
WSW
WSW
WSW
WSW
W
W
W
(mph)
4-13
4-13
4-11
4-11
4-13
3-10
3-9
3-10
3-10
(in)
0
0
0
0.2
0.2
0.2
0
0
0
(%)
87
87
49
74
87
74
49
38
38

Sun elevation

/ 10.7°
sun-icon
UV 6
05:50
19:15
Waxing gibbous moon (119°)
14:38
01:00

METAR for Indore (VAID)

Time Conditions Temperature/
Dewpoint
Wind Visibility Weather Clouds Pressure Change Raw
MVFR 78.8°F / 75.2°F 200º 6kt 5000m Showers Few Clouds 1000ft
Scattered Clouds 2000ft
Few Clouds 3000ft
Broken Clouds 10000ft
1001 Temporary: Visibility 3000. Light Thunderstorm Rain . VAID 161230Z 20006KT 5000 TSHZ FEW010 SCT020 FEW030CB BKN100 26/24 Q1001 TEMPO 3000 -TSRA
MVFR 80.6°F / 75.2°F 240º 5kt 5000m Showers Few Clouds 1000ft
Scattered Clouds 2000ft
Few Clouds 3000ft
Broken Clouds 10000ft
1001 Temporary: Visibility 3000. Light Thunderstorm Rain . VAID 161200Z 24005KT 5000 TSHZ FEW010 SCT020 FEW030CB BKN100 27/24 Q1001 TEMPO 3000 -TSRA
MVFR 84.2°F / 77°F 50º 4kt 5000m Haze Few Clouds 1000ft
Scattered Clouds 2000ft
Few Clouds 3000ft
Broken Clouds 10000ft
1000 Temporary: Visibility 4000. Light Thunderstorm Rain . VAID 161130Z 05004KT 5000 HZ FEW010 SCT020 FEW030CB BKN100 29/25 Q1000 TEMPO 4000 -TSRA
MVFR 86°F / 78.8°F 20º 3kt 5000m Haze Few Clouds 1000ft
Scattered Clouds 2000ft
Few Clouds 3000ft
1000 Temporary: Visibility 4000. Light Thunderstorm Rain . VAID 161100Z 02003KT 5000 HZ FEW010 SCT020 FEW030CB 30/26 Q1000 TEMPO 4000 -TSRA
MVFR 86°F / 77°F 50º 6kt 5000m Drizzle 0.40mm precipitation Few Clouds 1000ft
Scattered Clouds 2000ft
Few Clouds 3000ft
1000 Temporary: Visibility 4000. Light Thunderstorm Rain . VAID 161030Z 05006KT 5000 DZ FEW010 SCT020 FEW030CB 30/25 Q1000 TEMPO 4000 -TSRA
MVFR 86°F / 77°F 30º 5kt 6000m - Scattered Clouds 2000ft
Scattered Clouds 2500ft
1000 No Significant change VAID 161000Z 03005KT 6000 SCT020 SCT025 30/25 Q1000 NOSIG
MVFR 89.6°F / 77°F 70º 3kt 6000m - Scattered Clouds 2000ft
Scattered Clouds 2500ft
1001 No Significant change VAID 160930Z 07003KT 6000 SCT020 SCT025 32/25 Q1001 NOSIG
MVFR 87.8°F / 78.8°F 30º 3kt 6000m - Few Clouds 2000ft
Scattered Clouds 2500ft
1001 No Significant change VAID 160900Z 03003KT 6000 FEW020 SCT025 31/26 Q1001 NOSIG
MVFR 87.8°F / 78.8°F 80º 7kt 6000m - Scattered Clouds 1800ft 1001 No Significant change VAID 160830Z 08007KT 6000 SCT018 31/26 Q1001 NOSIG
MVFR 86°F / 77°F 40º 4kt 6000m - Scattered Clouds 1800ft 1002 No Significant change VAID 160800Z 04004KT 6000 SCT018 30/25 Q1002 NOSIG
MVFR 87.8°F / 75.2°F 50º 6kt 6000m - Scattered Clouds 1800ft 1002 No Significant change VAID 160730Z 05006KT 6000 SCT018 31/24 Q1002 NOSIG
MVFR 87.8°F / 77°F 100º 3kt 6000m - Scattered Clouds 1800ft 1002 No Significant change VAID 160700Z 10003KT 6000 SCT018 31/25 Q1002 NOSIG
MVFR 89.6°F / 78.8°F 120º 4kt 6000m - Scattered Clouds 1800ft 1003 No Significant change VAID 160630Z 12004KT 6000 SCT018 32/26 Q1003 NOSIG
MVFR 86°F / 77°F 140º 3kt 6000m - Few Clouds 2000ft 1003 No Significant change VAID 160600Z 14003KT 6000 FEW020 30/25 Q1003 NOSIG
MVFR 84.2°F / 75.2°F 90º 4kt 6000m - Few Clouds 2000ft 1003 No Significant change VAID 160530Z 09004KT 6000 FEW020 29/24 Q1003 NOSIG
MVFR 82.4°F / 77°F 90º 3kt 6000m - Few Clouds 2000ft
Scattered Clouds 10000ft
1003 No Significant change VAID 160500Z 09003KT 6000 FEW020 SCT100 28/25 Q1003 NOSIG
MVFR 80.6°F / 75.2°F 10º 3kt 6000m - Few Clouds 1200ft
Scattered Clouds 1800ft
Broken Clouds 10000ft
1004 No Significant change VAID 160430Z 01003KT 6000 FEW012 SCT018 BKN100 27/24 Q1004 NOSIG
MVFR 78.8°F / 75.2°F 350º 4kt 6000m - Few Clouds 1200ft
Scattered Clouds 1800ft
1004 No Significant change VAID 160400Z 35004KT 6000 FEW012 SCT018 26/24 Q1004 NOSIG
MVFR 78.8°F / 75.2°F 360º 4kt 6000m - Few Clouds 1800ft
Scattered Clouds 10000ft
1003 No Significant change VAID 160330Z 36004KT 6000 FEW018 SCT100 26/24 Q1003 NOSIG
MVFR 75.2°F / 73.4°F 50º 4kt 6000m - Few Clouds 1800ft
Scattered Clouds 10000ft
1003 No Significant change VAID 160300Z 05004KT 6000 FEW018 SCT100 24/23 Q1003 NOSIG
MVFR 75.2°F / 71.6°F 50º 3kt 6000m - Few Clouds 1000ft
Scattered Clouds 2000ft
Broken Clouds 10000ft
1003 No Significant change VAID 160230Z 05003KT 6000 FEW010 SCT020 BKN100 24/22 Q1003 NOSIG
MVFR 77°F / 73.4°F 10º 5kt 5000m Showers Few Clouds 1000ft
Scattered Clouds 2000ft
Few Clouds 3000ft
Broken Clouds 10000ft
1003 Temporary: Visibility 4000. Light Thunderstorm Rain . VAID 160200Z 01005KT 5000 TSHZ FEW010 SCT020 FEW030CB BKN100 25/23 Q1003 TEMPO 4000 -TSRA
MVFR 77°F / 73.4°F 30º 4kt 5000m Light Thunderstorm Rain 3.00mm precipitation Few Clouds 1000ft
Scattered Clouds 2000ft
Few Clouds 3000ft
Broken Clouds 10000ft
1003 No Significant change VAID 160130Z 03004KT 5000 -TSRA FEW010 SCT020 FEW030CB BKN100 25/23 Q1003 NOSIG
IFR 77°F / 73.4°F 330º 2kt 3000m Light Thunderstorm Rain 3.00mm precipitation Few Clouds 1000ft
Scattered Clouds 2000ft
Few Clouds 3000ft
Overcast 8000ft
1002 Becoming: Visibility 4000. Light Thunderstorm Rain . VAID 160100Z 33002KT 3000 -TSRA FEW010 SCT020 FEW030CB OVC080 25/23 Q1002 BECMG 4000 -TSRA

MVFR

78.8°F / 75.2°F

[More]
Wind 200º 6kt
Visibility 5000m
Weather Showers
Clouds Few Clouds 1000ft
Scattered Clouds 2000ft
Few Clouds 3000ft
Broken Clouds 10000ft
Pressure 1001
Change Temporary: Visibility 3000. Light Thunderstorm Rain .
Raw VAID 161230Z 20006KT 5000 TSHZ FEW010 SCT020 FEW030CB BKN100 26/24 Q1001 TEMPO 3000 -TSRA

MVFR

80.6°F / 75.2°F

[More]
Wind 240º 5kt
Visibility 5000m
Weather Showers
Clouds Few Clouds 1000ft
Scattered Clouds 2000ft
Few Clouds 3000ft
Broken Clouds 10000ft
Pressure 1001
Change Temporary: Visibility 3000. Light Thunderstorm Rain .
Raw VAID 161200Z 24005KT 5000 TSHZ FEW010 SCT020 FEW030CB BKN100 27/24 Q1001 TEMPO 3000 -TSRA

MVFR

84.2°F / 77°F

[More]
Wind 50º 4kt
Visibility 5000m
Weather Haze
Clouds Few Clouds 1000ft
Scattered Clouds 2000ft
Few Clouds 3000ft
Broken Clouds 10000ft
Pressure 1000
Change Temporary: Visibility 4000. Light Thunderstorm Rain .
Raw VAID 161130Z 05004KT 5000 HZ FEW010 SCT020 FEW030CB BKN100 29/25 Q1000 TEMPO 4000 -TSRA

MVFR

86°F / 78.8°F

[More]
Wind 20º 3kt
Visibility 5000m
Weather Haze
Clouds Few Clouds 1000ft
Scattered Clouds 2000ft
Few Clouds 3000ft
Pressure 1000
Change Temporary: Visibility 4000. Light Thunderstorm Rain .
Raw VAID 161100Z 02003KT 5000 HZ FEW010 SCT020 FEW030CB 30/26 Q1000 TEMPO 4000 -TSRA

MVFR

86°F / 77°F

[More]
Wind 50º 6kt
Visibility 5000m
Weather Drizzle 0.40mm precipitation
Clouds Few Clouds 1000ft
Scattered Clouds 2000ft
Few Clouds 3000ft
Pressure 1000
Change Temporary: Visibility 4000. Light Thunderstorm Rain .
Raw VAID 161030Z 05006KT 5000 DZ FEW010 SCT020 FEW030CB 30/25 Q1000 TEMPO 4000 -TSRA

MVFR

86°F / 77°F

[More]
Wind 30º 5kt
Visibility 6000m
Weather -
Clouds Scattered Clouds 2000ft
Scattered Clouds 2500ft
Pressure 1000
Change No Significant change
Raw VAID 161000Z 03005KT 6000 SCT020 SCT025 30/25 Q1000 NOSIG

MVFR

89.6°F / 77°F

[More]
Wind 70º 3kt
Visibility 6000m
Weather -
Clouds Scattered Clouds 2000ft
Scattered Clouds 2500ft
Pressure 1001
Change No Significant change
Raw VAID 160930Z 07003KT 6000 SCT020 SCT025 32/25 Q1001 NOSIG

MVFR

87.8°F / 78.8°F

[More]
Wind 30º 3kt
Visibility 6000m
Weather -
Clouds Few Clouds 2000ft
Scattered Clouds 2500ft
Pressure 1001
Change No Significant change
Raw VAID 160900Z 03003KT 6000 FEW020 SCT025 31/26 Q1001 NOSIG

MVFR

87.8°F / 78.8°F

[More]
Wind 80º 7kt
Visibility 6000m
Weather -
Clouds Scattered Clouds 1800ft
Pressure 1001
Change No Significant change
Raw VAID 160830Z 08007KT 6000 SCT018 31/26 Q1001 NOSIG

MVFR

86°F / 77°F

[More]
Wind 40º 4kt
Visibility 6000m
Weather -
Clouds Scattered Clouds 1800ft
Pressure 1002
Change No Significant change
Raw VAID 160800Z 04004KT 6000 SCT018 30/25 Q1002 NOSIG

MVFR

87.8°F / 75.2°F

[More]
Wind 50º 6kt
Visibility 6000m
Weather -
Clouds Scattered Clouds 1800ft
Pressure 1002
Change No Significant change
Raw VAID 160730Z 05006KT 6000 SCT018 31/24 Q1002 NOSIG

MVFR

87.8°F / 77°F

[More]
Wind 100º 3kt
Visibility 6000m
Weather -
Clouds Scattered Clouds 1800ft
Pressure 1002
Change No Significant change
Raw VAID 160700Z 10003KT 6000 SCT018 31/25 Q1002 NOSIG

MVFR

89.6°F / 78.8°F

[More]
Wind 120º 4kt
Visibility 6000m
Weather -
Clouds Scattered Clouds 1800ft
Pressure 1003
Change No Significant change
Raw VAID 160630Z 12004KT 6000 SCT018 32/26 Q1003 NOSIG

MVFR

86°F / 77°F

[More]
Wind 140º 3kt
Visibility 6000m
Weather -
Clouds Few Clouds 2000ft
Pressure 1003
Change No Significant change
Raw VAID 160600Z 14003KT 6000 FEW020 30/25 Q1003 NOSIG

MVFR

84.2°F / 75.2°F

[More]
Wind 90º 4kt
Visibility 6000m
Weather -
Clouds Few Clouds 2000ft
Pressure 1003
Change No Significant change
Raw VAID 160530Z 09004KT 6000 FEW020 29/24 Q1003 NOSIG

MVFR

82.4°F / 77°F

[More]
Wind 90º 3kt
Visibility 6000m
Weather -
Clouds Few Clouds 2000ft
Scattered Clouds 10000ft
Pressure 1003
Change No Significant change
Raw VAID 160500Z 09003KT 6000 FEW020 SCT100 28/25 Q1003 NOSIG

MVFR

80.6°F / 75.2°F

[More]
Wind 10º 3kt
Visibility 6000m
Weather -
Clouds Few Clouds 1200ft
Scattered Clouds 1800ft
Broken Clouds 10000ft
Pressure 1004
Change No Significant change
Raw VAID 160430Z 01003KT 6000 FEW012 SCT018 BKN100 27/24 Q1004 NOSIG

MVFR

78.8°F / 75.2°F

[More]
Wind 350º 4kt
Visibility 6000m
Weather -
Clouds Few Clouds 1200ft
Scattered Clouds 1800ft
Pressure 1004
Change No Significant change
Raw VAID 160400Z 35004KT 6000 FEW012 SCT018 26/24 Q1004 NOSIG

MVFR

78.8°F / 75.2°F

[More]
Wind 360º 4kt
Visibility 6000m
Weather -
Clouds Few Clouds 1800ft
Scattered Clouds 10000ft
Pressure 1003
Change No Significant change
Raw VAID 160330Z 36004KT 6000 FEW018 SCT100 26/24 Q1003 NOSIG

MVFR

75.2°F / 73.4°F

[More]
Wind 50º 4kt
Visibility 6000m
Weather -
Clouds Few Clouds 1800ft
Scattered Clouds 10000ft
Pressure 1003
Change No Significant change
Raw VAID 160300Z 05004KT 6000 FEW018 SCT100 24/23 Q1003 NOSIG

MVFR

75.2°F / 71.6°F

[More]
Wind 50º 3kt
Visibility 6000m
Weather -
Clouds Few Clouds 1000ft
Scattered Clouds 2000ft
Broken Clouds 10000ft
Pressure 1003
Change No Significant change
Raw VAID 160230Z 05003KT 6000 FEW010 SCT020 BKN100 24/22 Q1003 NOSIG

MVFR

77°F / 73.4°F

[More]
Wind 10º 5kt
Visibility 5000m
Weather Showers
Clouds Few Clouds 1000ft
Scattered Clouds 2000ft
Few Clouds 3000ft
Broken Clouds 10000ft
Pressure 1003
Change Temporary: Visibility 4000. Light Thunderstorm Rain .
Raw VAID 160200Z 01005KT 5000 TSHZ FEW010 SCT020 FEW030CB BKN100 25/23 Q1003 TEMPO 4000 -TSRA

MVFR

77°F / 73.4°F

[More]
Wind 30º 4kt
Visibility 5000m
Weather Light Thunderstorm Rain 3.00mm precipitation
Clouds Few Clouds 1000ft
Scattered Clouds 2000ft
Few Clouds 3000ft
Broken Clouds 10000ft
Pressure 1003
Change No Significant change
Raw VAID 160130Z 03004KT 5000 -TSRA FEW010 SCT020 FEW030CB BKN100 25/23 Q1003 NOSIG

IFR

77°F / 73.4°F

[More]
Wind 330º 2kt
Visibility 3000m
Weather Light Thunderstorm Rain 3.00mm precipitation
Clouds Few Clouds 1000ft
Scattered Clouds 2000ft
Few Clouds 3000ft
Overcast 8000ft
Pressure 1002
Change Becoming: Visibility 4000. Light Thunderstorm Rain .
Raw VAID 160100Z 33002KT 3000 -TSRA FEW010 SCT020 FEW030CB OVC080 25/23 Q1002 BECMG 4000 -TSRA

TAF for Indore (VAID)

From till


From till Wind 360º 8kt. Visibility 4000m. Light Rain Haze . Few Clouds 1000ft. Scattered Clouds 2000ft. Broken Clouds 10000ft.
Becoming from till
Temporarly from till Wind 50º 10kt. Gust 20kt. Visibility 3000m. Light Thunderstorm Rain . Few Clouds 3000ft.

Raw: TAF VAID 152300Z 1600/1609 36008KT 4000 -RAHZ FEW010 SCT020 BKN100 BECMG 1604/1606 09010KT 5000 -RA HZ SCT020 BKN100 TEMPO 1608/1609 05010G20KT 3000 -TSRA FEW030CB

Radar for Indore

Drizzle
Light
Moderate
Heavy
Very Heavy
Hail

The location marker is placed on Indore. Orange crosses indicate lightning. Data provided by nowcast.de (available in USA, Europe, Australia). Drizzle or light snow fall might be invisible for the radar. Precipitation intensity is colour coded, ranging from turquoise to red.

Current satellite and rain images for Indore, India

The location marker is placed on Indore. [More]

The real-time satellite image combines visible light during daytime with infrared radiation during nighttime. At night, the image is not dark as infrared radiation can detect temperature differences. Unfortunately, low clouds and fog are difficult to distinguish from ground temperatures and thus can be almost invisible during the night. Meteosat satellite images for Europe are updated in real-time every 5 minutes. GOES-16/GOES-17 (North & South America) and Himawari (Asia) images update every 10 minutes.

Precipitation is estimated from radar and satellites. Precipitation estimates from satellites are less accurate at night than during daytime.

© 2024 meteoblue, NOAA Satellites GOES-16 and EUMETSAT. Lightning data provided by nowcast.

Back to top
×
Hey there,
seems like you are using an ad blocker.

Advertising is essential to maintain our free website with unique detail and accuracy.

Please whitelist www.meteoblue.com on your ad blocker or consider buying one of our products:

Already have a subscription?
Then please login.